Time;durP1;ratioP1;P1;durP2;ratioP2;P2;SDS_P1;SDS_P2;PMS_P1;PMS_P2;Temp;Humidity;BMP_temperature;BMP_pressure;BME280_temperature;BME280_humidity;BME280_pressure;Samples;Min_cycle;Max_cycle;Signal;HPM_P1;HPM_P2
2022/09/19 00:01:54;;;;;;;2.77;1.93;;;10.10;99.90;;;;;;5083458;28;20256;-53
2022/09/19 00:04:24;;;;;;;3.47;1.97;;;10.10;99.90;;;;;;5110082;28;20215;-53
2022/09/19 00:06:55;;;;;;;4.53;1.90;;;10.20;99.90;;;;;;5110583;28;20314;-53
2022/09/19 00:09:25;;;;;;;5.57;1.90;;;10.20;99.90;;;;;;5105160;28;20224;-53
2022/09/19 00:11:53;;;;;;;3.87;1.97;;;10.10;99.90;;;;;;5100888;28;20211;-53
2022/09/19 00:14:24;;;;;;;4.10;1.90;;;10.10;99.90;;;;;;5109895;28;20649;-52
2022/09/19 00:16:56;;;;;;;7.30;2.30;;;10.00;99.90;;;;;;5109964;28;20275;-53
2022/09/19 00:19:25;;;;;;;3.67;1.83;;;10.00;99.90;;;;;;5109676;28;20755;-53
2022/09/19 00:21:57;;;;;;;3.43;1.50;;;10.00;99.90;;;;;;5109452;28;20243;-53
2022/09/19 00:27:13;;;;;;;3.87;1.63;;;10.10;99.90;;;;;;5107790;28;20303;-53
2022/09/19 00:29:42;;;;;;;6.70;1.87;;;10.20;99.90;;;;;;5098308;28;20528;-53
2022/09/19 00:32:12;;;;;;;5.13;1.70;;;10.20;99.90;;;;;;5097753;28;20226;-53
2022/09/19 00:34:42;;;;;;;3.50;1.67;;;10.20;99.90;;;;;;5095575;28;20210;-54
2022/09/19 00:37:12;;;;;;;3.80;1.60;;;10.20;99.90;;;;;;5109494;28;20713;-53
2022/09/19 00:39:41;;;;;;;2.47;1.47;;;10.20;99.90;;;;;;5109587;28;20759;-53
2022/09/19 00:42:16;;;;;;;2.70;1.30;;;10.30;99.90;;;;;;5098702;28;20231;-53
2022/09/19 00:45:03;;;;;;;4.37;1.63;;;10.30;99.90;;;;;;5094318;28;20290;-53
2022/09/19 00:47:38;;;;;;;2.87;1.60;;;10.30;99.90;;;;;;5109969;28;20208;-54
2022/09/19 00:50:13;;;;;;;3.87;1.40;;;10.30;99.90;;;;;;5105640;28;20654;-54
2022/09/19 00:52:47;;;;;;;4.30;1.13;;;10.30;99.90;;;;;;5091180;28;20614;-53
2022/09/19 00:55:17;;;;;;;2.73;1.23;;;10.30;99.90;;;;;;5108183;28;20264;-53
2022/09/19 00:58:02;;;;;;;2.77;1.20;;;10.30;99.90;;;;;;5109725;28;20195;-53
2022/09/19 01:00:31;;;;;;;2.10;1.23;;;10.30;99.90;;;;;;5108323;28;20206;-53
2022/09/19 01:02:59;;;;;;;3.67;1.40;;;10.20;99.90;;;;;;5109056;28;20647;-54
2022/09/19 01:05:37;;;;;;;3.77;1.70;;;10.20;99.90;;;;;;5109391;28;20230;-53
2022/09/19 01:08:21;;;;;;;5.30;1.40;;;10.30;99.90;;;;;;5109614;28;20215;-53
2022/09/19 01:11:07;;;;;;;3.50;1.10;;;10.30;99.90;;;;;;5095358;28;20207;-53
2022/09/19 01:13:43;;;;;;;4.83;1.80;;;10.30;99.90;;;;;;5108938;28;20231;-52
2022/09/19 01:16:20;;;;;;;2.90;1.40;;;10.30;99.90;;;;;;5109169;28;20306;-53
2022/09/19 01:18:53;;;;;;;3.33;1.80;;;10.30;99.90;;;;;;5108771;28;20223;-54
2022/09/19 01:21:40;;;;;;;5.97;1.77;;;10.40;99.90;;;;;;5109374;28;20295;-53
2022/09/19 01:24:30;;;;;;;4.80;1.67;;;10.30;99.90;;;;;;5109353;28;20310;-53
2022/09/19 01:27:28;;;;;;;4.03;1.63;;;10.40;99.90;;;;;;5109354;28;20208;-53
2022/09/19 01:30:02;;;;;;;3.90;1.63;;;10.40;99.90;;;;;;5071687;28;20651;-53
2022/09/19 01:32:35;;;;;;;3.93;1.70;;;10.40;99.90;;;;;;5107626;28;20290;-53
2022/09/19 01:35:07;;;;;;;5.20;2.20;;;10.40;99.90;;;;;;5098437;28;20747;-53
2022/09/19 01:37:40;;;;;;;4.63;1.80;;;10.50;99.90;;;;;;5112735;28;20207;-53
2022/09/19 01:40:11;;;;;;;4.57;1.93;;;10.50;99.90;;;;;;5112204;28;20771;-52
2022/09/19 01:42:53;;;;;;;4.90;2.20;;;10.50;99.90;;;;;;5112016;28;20213;-53
2022/09/19 01:45:24;;;;;;;4.77;1.90;;;10.50;99.90;;;;;;5112586;28;20215;-53
2022/09/19 01:48:01;;;;;;;6.70;2.23;;;10.50;99.90;;;;;;5111280;28;20252;-53
2022/09/19 01:50:46;;;;;;;6.40;1.93;;;10.50;99.90;;;;;;5112875;28;20243;-53
2022/09/19 01:53:23;;;;;;;6.77;2.30;;;10.50;99.90;;;;;;5111525;28;20253;-53
2022/09/19 01:55:59;;;;;;;6.67;2.20;;;10.50;99.90;;;;;;5112604;28;20691;-53
2022/09/19 01:58:34;;;;;;;5.30;2.20;;;10.50;99.90;;;;;;5112365;28;20310;-53
2022/09/19 02:01:09;;;;;;;5.10;2.13;;;10.50;99.90;;;;;;5112469;28;20294;-53
2022/09/19 02:03:47;;;;;;;5.93;2.10;;;10.40;99.90;;;;;;5111904;28;20732;-53
2022/09/19 02:06:22;;;;;;;4.67;1.90;;;10.40;99.90;;;;;;5112807;28;20291;-53
2022/09/19 02:08:59;;;;;;;2.90;1.97;;;10.50;99.90;;;;;;5112267;28;20262;-53
2022/09/19 02:11:27;;;;;;;7.13;2.03;;;10.50;99.90;;;;;;5111855;28;20646;-53
2022/09/19 02:13:59;;;;;;;4.80;2.10;;;10.50;99.90;;;;;;5111536;28;20246;-53
2022/09/19 02:16:34;;;;;;;4.53;1.97;;;10.50;99.90;;;;;;5112537;28;20381;-54
2022/09/19 02:19:08;;;;;;;4.77;2.00;;;10.50;99.90;;;;;;5084080;28;20246;-53
2022/09/19 02:21:42;;;;;;;4.60;2.27;;;10.60;99.90;;;;;;5112697;28;20203;-53
2022/09/19 02:24:16;;;;;;;5.70;2.00;;;10.60;99.90;;;;;;5111207;28;20747;-53
2022/09/19 02:26:48;;;;;;;3.03;1.90;;;10.60;99.90;;;;;;5112108;28;20294;-53
2022/09/19 02:29:20;;;;;;;4.10;1.80;;;10.60;99.90;;;;;;5108411;28;20841;-53
2022/09/19 02:31:51;;;;;;;6.37;2.20;;;10.60;99.90;;;;;;5104783;28;20243;-52
2022/09/19 02:34:20;;;;;;;8.17;2.67;;;10.60;99.90;;;;;;5103752;28;20283;-53
2022/09/19 02:36:54;;;;;;;4.63;1.90;;;10.60;99.90;;;;;;5112092;28;20892;-53
2022/09/19 02:39:28;;;;;;;5.87;2.00;;;10.60;99.90;;;;;;5111676;28;20638;-53
2022/09/19 02:42:03;;;;;;;4.43;2.00;;;10.60;99.90;;;;;;5111311;28;20230;-53
2022/09/19 02:44:36;;;;;;;5.07;2.10;;;10.60;99.90;;;;;;5111724;28;20252;-53
2022/09/19 02:47:13;;;;;;;4.57;2.30;;;10.60;99.90;;;;;;5111217;28;20235;-53
2022/09/19 02:49:46;;;;;;;6.63;2.27;;;10.60;99.90;;;;;;5111363;28;20231;-53
2022/09/19 02:52:20;;;;;;;6.73;2.30;;;10.60;99.90;;;;;;5111495;28;20235;-53
2022/09/19 02:54:53;;;;;;;4.20;1.90;;;10.60;99.90;;;;;;5108609;28;20603;-53
2022/09/19 02:57:23;;;;;;;5.77;2.50;;;10.60;99.90;;;;;;5101330;28;20239;-53
2022/09/19 02:59:58;;;;;;;5.33;2.10;;;10.60;99.90;;;;;;5111475;28;20241;-53
2022/09/19 03:02:33;;;;;;;7.47;2.30;;;10.60;99.90;;;;;;5111448;28;20211;-52
2022/09/19 03:05:06;;;;;;;8.63;2.70;;;10.60;99.90;;;;;;5111441;28;20217;-53
2022/09/19 03:07:40;;;;;;;7.93;2.23;;;10.60;99.90;;;;;;5102361;28;20349;-52
2022/09/19 03:10:12;;;;;;;7.40;2.27;;;10.70;99.90;;;;;;5111398;28;20314;-53
2022/09/19 03:12:50;;;;;;;8.80;2.30;;;10.70;99.90;;;;;;5110963;28;20210;-53
2022/09/19 03:15:21;;;;;;;8.47;2.70;;;10.60;99.90;;;;;;5110942;28;20862;-53
2022/09/19 03:17:53;;;;;;;4.57;2.23;;;10.60;99.90;;;;;;5111330;28;20283;-53
2022/09/19 03:20:23;;;;;;;9.10;1.83;;;10.60;99.90;;;;;;5111017;28;20319;-53
2022/09/19 03:22:53;;;;;;;5.73;2.37;;;10.60;99.90;;;;;;5110685;28;20286;-53
2022/09/19 03:25:21;;;;;;;9.17;2.50;;;10.60;99.90;;;;;;5111544;28;20233;-53
2022/09/19 03:27:50;;;;;;;4.33;1.83;;;10.70;99.90;;;;;;5111048;28;20314;-53
2022/09/19 03:30:18;;;;;;;5.60;2.20;;;10.60;99.90;;;;;;5110744;28;20246;-53
2022/09/19 03:32:47;;;;;;;5.30;2.00;;;10.60;99.90;;;;;;5108560;28;20291;-53
2022/09/19 03:35:17;;;;;;;5.90;2.40;;;10.60;99.90;;;;;;5103472;28;20200;-53
2022/09/19 03:37:45;;;;;;;8.77;2.00;;;10.60;99.90;;;;;;5082649;28;20679;-53
2022/09/19 03:40:14;;;;;;;6.93;2.17;;;10.60;99.90;;;;;;5110815;28;20313;-53
2022/09/19 03:42:46;;;;;;;4.80;2.10;;;10.70;99.90;;;;;;5110045;28;20204;-53
2022/09/19 03:45:14;;;;;;;5.63;2.33;;;10.60;99.90;;;;;;5110507;28;20291;-53
2022/09/19 03:47:42;;;;;;;5.13;2.30;;;10.60;99.90;;;;;;5109576;28;20582;-53
2022/09/19 03:50:10;;;;;;;5.10;2.00;;;10.60;99.90;;;;;;5110689;28;20228;-53
2022/09/19 03:52:41;;;;;;;7.00;2.57;;;10.60;99.90;;;;;;5110041;28;20707;-53
2022/09/19 03:55:09;;;;;;;4.47;2.23;;;10.60;99.90;;;;;;5110716;28;20287;-52
2022/09/19 03:57:42;;;;;;;5.63;2.33;;;10.60;99.90;;;;;;5110682;28;20204;-53
2022/09/19 04:00:11;;;;;;;4.70;2.13;;;10.70;99.90;;;;;;5109152;28;20331;-53
2022/09/19 04:02:39;;;;;;;6.07;2.17;;;10.70;99.90;;;;;;5110167;28;20235;-53
2022/09/19 04:05:08;;;;;;;4.17;2.30;;;10.70;99.90;;;;;;5110104;28;20256;-53
2022/09/19 04:07:38;;;;;;;5.33;2.40;;;10.70;99.90;;;;;;5100708;28;20247;-53
2022/09/19 04:10:08;;;;;;;5.30;2.40;;;10.70;99.90;;;;;;5109953;28;20220;-53
2022/09/19 04:12:36;;;;;;;7.27;2.40;;;10.70;99.90;;;;;;5109891;28;20217;-53
2022/09/19 04:15:05;;;;;;;7.50;2.87;;;10.80;99.90;;;;;;5109892;28;20326;-53
2022/09/19 04:17:34;;;;;;;8.03;2.60;;;10.80;99.90;;;;;;5088605;28;20239;-53
2022/09/19 04:20:02;;;;;;;5.60;2.40;;;10.80;99.90;;;;;;5089111;28;20602;-53
2022/09/19 04:22:30;;;;;;;7.90;2.60;;;10.80;99.90;;;;;;5089157;28;20658;-54
2022/09/19 04:24:58;;;;;;;6.57;2.60;;;10.80;99.90;;;;;;5089360;28;20204;-53
2022/09/19 04:27:27;;;;;;;8.87;2.80;;;10.80;99.90;;;;;;5087606;28;20652;-53
2022/09/19 04:29:55;;;;;;;5.63;2.67;;;10.80;99.90;;;;;;5087373;28;20230;-53
2022/09/19 04:32:24;;;;;;;6.83;2.53;;;10.80;99.90;;;;;;5085173;28;20211;-53
2022/09/19 04:34:55;;;;;;;6.00;2.37;;;10.80;99.90;;;;;;5087546;28;20208;-53
2022/09/19 04:37:23;;;;;;;9.93;2.43;;;10.80;99.90;;;;;;5087359;28;20254;-53
2022/09/19 04:39:51;;;;;;;7.97;2.80;;;10.80;99.90;;;;;;5086886;28;20252;-53
2022/09/19 04:42:19;;;;;;;6.20;2.40;;;10.90;99.90;;;;;;5085991;28;20291;-53
2022/09/19 04:44:49;;;;;;;5.67;2.40;;;10.90;99.90;;;;;;5086920;28;20299;-52
2022/09/19 04:47:17;;;;;;;5.57;2.60;;;10.80;99.90;;;;;;5088102;28;20287;-53
2022/09/19 04:49:45;;;;;;;4.77;2.00;;;10.90;99.90;;;;;;5075117;28;20732;-53
2022/09/19 04:52:13;;;;;;;5.67;2.80;;;10.90;99.90;;;;;;5097469;28;20294;-52
2022/09/19 04:54:41;;;;;;;9.27;2.50;;;10.90;99.90;;;;;;5108716;28;20235;-53
2022/09/19 04:57:10;;;;;;;6.63;2.67;;;10.90;99.90;;;;;;5109753;28;20345;-52
2022/09/19 04:59:38;;;;;;;6.93;2.60;;;10.90;99.90;;;;;;5109607;28;20272;-53
2022/09/19 05:02:08;;;;;;;3.77;2.23;;;10.90;99.90;;;;;;5109633;28;20290;-53
2022/09/19 05:04:38;;;;;;;5.57;2.50;;;10.90;99.90;;;;;;5110076;28;20214;-53
2022/09/19 05:07:08;;;;;;;5.50;2.67;;;10.90;99.90;;;;;;5109588;28;20664;-53
2022/09/19 05:09:36;;;;;;;6.00;2.50;;;10.90;99.90;;;;;;5109689;28;20359;-52
2022/09/19 05:12:08;;;;;;;4.77;2.30;;;10.90;99.90;;;;;;5111836;28;20207;-52
2022/09/19 05:14:36;;;;;;;6.80;2.60;;;10.90;99.90;;;;;;5113687;28;20219;-53
2022/09/19 05:17:04;;;;;;;6.53;2.73;;;10.90;99.90;;;;;;5113937;28;20203;-52
2022/09/19 05:19:36;;;;;;;6.40;2.90;;;10.90;99.90;;;;;;5113774;28;20575;-52
2022/09/19 05:22:04;;;;;;;6.33;2.60;;;10.90;99.90;;;;;;5112912;28;20287;-53
2022/09/19 05:24:32;;;;;;;5.57;2.43;;;10.90;99.90;;;;;;5113467;28;20291;-53
2022/09/19 05:27:02;;;;;;;5.97;2.60;;;10.90;99.90;;;;;;5113196;28;20290;-53
2022/09/19 05:29:31;;;;;;;6.20;2.70;;;10.80;99.90;;;;;;5113041;28;20251;-53
2022/09/19 05:32:02;;;;;;;5.53;2.57;;;10.90;99.90;;;;;;5112770;28;20290;-53
2022/09/19 05:34:30;;;;;;;3.50;2.10;;;10.90;99.90;;;;;;5104132;28;20616;-53
2022/09/19 05:36:59;;;;;;;7.63;2.33;;;10.90;99.90;;;;;;5112650;28;20208;-53
2022/09/19 05:39:27;;;;;;;5.37;2.60;;;10.90;99.90;;;;;;5098914;28;20250;-53
2022/09/19 05:41:55;;;;;;;7.30;2.43;;;10.90;99.90;;;;;;5112845;28;20295;-53
2022/09/19 05:44:24;;;;;;;6.73;2.40;;;10.90;99.90;;;;;;5106375;28;20204;-53
2022/09/19 05:46:52;;;;;;;8.37;2.60;;;11.00;99.90;;;;;;5095280;28;20723;-53
2022/09/19 05:49:21;;;;;;;7.27;3.20;;;10.90;99.90;;;;;;5092552;28;20228;-53
2022/09/19 05:51:49;;;;;;;9.83;3.00;;;10.90;99.90;;;;;;5097737;28;20210;-52
2022/09/19 05:54:17;;;;;;;10.50;4.30;;;11.00;99.90;;;;;;5112642;28;20839;-53
2022/09/19 05:56:50;;;;;;;8.40;4.20;;;11.00;99.90;;;;;;5112831;28;20210;-53
2022/09/19 05:59:18;;;;;;;9.93;3.63;;;11.00;99.90;;;;;;5112535;28;20314;-52
2022/09/19 06:01:46;;;;;;;6.73;3.00;;;11.10;99.90;;;;;;5104818;28;20200;-52
2022/09/19 06:04:14;;;;;;;8.27;2.93;;;11.10;99.90;;;;;;5098427;28;20208;-53
2022/09/19 06:06:42;;;;;;;6.87;2.90;;;11.10;99.90;;;;;;5088547;28;20218;-53
2022/09/19 06:09:10;;;;;;;11.43;3.10;;;11.20;99.90;;;;;;5091459;28;20311;-53
2022/09/19 06:11:40;;;;;;;6.57;3.03;;;11.20;99.90;;;;;;5091560;28;20674;-53
2022/09/19 06:14:15;;;;;;;8.37;3.50;;;11.20;99.90;;;;;;5091470;28;20220;-53
2022/09/19 06:16:43;;;;;;;9.23;4.87;;;11.20;99.90;;;;;;5091906;28;20288;-53
2022/09/19 06:19:11;;;;;;;11.83;6.27;;;11.30;99.90;;;;;;5091807;28;20705;-53
2022/09/19 06:21:39;;;;;;;8.37;3.57;;;11.40;99.90;;;;;;5091863;28;20192;-53
2022/09/19 06:24:08;;;;;;;10.97;3.30;;;11.40;99.90;;;;;;5080878;28;20613;-53
2022/09/19 06:26:37;;;;;;;6.00;3.13;;;11.40;99.90;;;;;;5074495;28;20232;-53
2022/09/19 06:29:06;;;;;;;10.37;3.20;;;11.40;99.90;;;;;;5088614;28;20311;-53
2022/09/19 06:31:36;;;;;;;11.53;3.60;;;11.40;99.90;;;;;;5089932;28;20205;-53
2022/09/19 06:34:05;;;;;;;7.67;3.43;;;11.40;99.90;;;;;;5086679;28;20240;-53
2022/09/19 06:36:34;;;;;;;8.60;4.00;;;11.40;99.90;;;;;;5088884;28;20240;-53
2022/09/19 06:39:02;;;;;;;10.00;4.67;;;11.40;99.90;;;;;;5089027;28;20354;-53
2022/09/19 06:41:30;;;;;;;11.37;5.50;;;11.30;99.90;;;;;;5088605;28;20196;-54
2022/09/19 06:43:58;;;;;;;6.70;3.33;;;11.40;99.90;;;;;;5088210;28;20745;-53
2022/09/19 06:46:30;;;;;;;6.60;3.13;;;11.70;99.90;;;;;;5088804;28;20269;-53
2022/09/19 06:48:58;;;;;;;9.50;5.67;;;12.20;99.90;;;;;;5083318;28;20266;-53
2022/09/19 06:51:29;;;;;;;11.90;7.30;;;12.60;99.90;;;;;;5107263;28;20226;-54
2022/09/19 06:53:57;;;;;;;12.83;4.90;;;13.00;99.90;;;;;;5110649;28;20260;-54
2022/09/19 06:56:25;;;;;;;9.40;5.60;;;13.20;99.90;;;;;;5110321;28;20756;-53
2022/09/19 06:58:53;;;;;;;10.90;5.77;;;13.50;99.90;;;;;;5110673;28;20277;-54
2022/09/19 07:01:22;;;;;;;6.47;3.30;;;13.70;99.90;;;;;;5109769;28;20246;-53
2022/09/19 07:03:52;;;;;;;9.40;3.53;;;13.80;99.90;;;;;;5110182;28;20249;-53
2022/09/19 07:06:20;;;;;;;6.60;3.83;;;14.10;99.90;;;;;;5110487;28;20209;-53
2022/09/19 07:08:48;;;;;;;8.35;3.33;;;14.00;99.90;;;;;;5110677;28;20314;-55
2022/09/19 07:11:17;;;;;;;3.25;2.55;;;13.70;99.90;;;;;;5110822;28;20284;-53
2022/09/19 07:13:48;;;;;;;13.90;5.37;;;13.40;99.90;;;;;;5109484;28;20310;-54
2022/09/19 07:16:16;;;;;;;10.13;4.77;;;13.30;99.90;;;;;;5110391;28;20227;-54
2022/09/19 07:18:44;;;;;;;6.03;3.33;;;13.20;99.90;;;;;;5110055;28;20219;-53
2022/09/19 07:21:14;;;;;;;8.57;3.67;;;13.10;99.90;;;;;;5109455;28;20225;-53
2022/09/19 07:23:42;;;;;;;9.47;6.10;;;13.10;99.90;;;;;;5109329;28;20268;-54
2022/09/19 07:26:10;;;;;;;12.50;6.40;;;13.10;99.90;;;;;;5109390;28;20711;-53
2022/09/19 07:28:38;;;;;;;6.37;3.07;;;13.00;99.90;;;;;;5106646;28;20230;-54
2022/09/19 07:31:06;;;;;;;7.77;3.17;;;13.10;99.90;;;;;;5099206;28;20254;-54
2022/09/19 07:33:35;;;;;;;7.77;3.20;;;13.20;99.90;;;;;;5086763;28;20295;-53
2022/09/19 07:36:04;;;;;;;7.30;3.63;;;13.20;99.90;;;;;;5077640;28;20684;-53
2022/09/19 07:38:38;;;;;;;6.63;3.20;;;13.30;99.90;;;;;;5088993;28;20227;-54
2022/09/19 07:41:06;;;;;;;10.00;4.90;;;13.40;99.90;;;;;;5089073;28;20238;-54
2022/09/19 07:43:37;;;;;;;8.13;3.17;;;13.70;99.90;;;;;;5088329;28;20669;-53
2022/09/19 07:46:05;;;;;;;11.57;2.77;;;13.70;99.90;;;;;;5089353;28;20242;-53
2022/09/19 07:48:34;;;;;;;6.93;2.67;;;13.80;99.90;;;;;;5089498;28;20232;-53
2022/09/19 07:51:02;;;;;;;5.77;2.97;;;13.90;99.90;;;;;;5091868;28;20303;-53
2022/09/19 07:53:30;;;;;;;5.63;2.67;;;13.80;99.90;;;;;;5075042;28;20204;-53
2022/09/19 07:56:00;;;;;;;6.33;2.20;;;13.80;99.90;;;;;;5089067;28;20262;-53
2022/09/19 07:58:30;;;;;;;7.77;2.20;;;13.90;99.90;;;;;;5088691;28;20250;-53
2022/09/19 08:01:01;;;;;;;6.30;2.13;;;13.90;99.90;;;;;;5089142;28;20211;-53
2022/09/19 08:03:29;;;;;;;5.57;2.30;;;13.90;99.90;;;;;;5088457;28;20196;-53
2022/09/19 08:06:00;;;;;;;4.63;2.30;;;14.10;99.90;;;;;;5083498;28;20744;-53
2022/09/19 08:08:28;;;;;;;6.73;2.50;;;14.20;99.90;;;;;;5082689;28;20231;-52
2022/09/19 08:11:01;;;;;;;5.90;2.20;;;14.10;99.90;;;;;;5086809;28;20238;-53
2022/09/19 08:13:30;;;;;;;6.77;2.30;;;14.00;99.90;;;;;;5083555;28;20196;-53
2022/09/19 08:15:59;;;;;;;4.83;2.03;;;14.00;99.90;;;;;;5079282;28;20215;-53
2022/09/19 08:18:31;;;;;;;7.87;2.33;;;13.90;99.90;;;;;;5086645;28;20258;-53
2022/09/19 08:20:59;;;;;;;5.13;2.10;;;13.90;99.90;;;;;;5087612;28;20209;-53
2022/09/19 08:23:29;;;;;;;6.20;1.90;;;13.80;99.90;;;;;;5087746;28;20287;-53
2022/09/19 08:25:57;;;;;;;4.43;1.80;;;13.80;99.90;;;;;;5088511;28;20216;-53
2022/09/19 08:28:30;;;;;;;5.10;1.83;;;13.90;99.90;;;;;;5087180;28;20235;-52
2022/09/19 08:30:59;;;;;;;4.77;1.47;;;14.10;99.90;;;;;;5087963;28;20235;-53
2022/09/19 08:33:27;;;;;;;5.77;1.80;;;14.20;99.90;;;;;;5083385;28;20346;-53
2022/09/19 08:35:57;;;;;;;3.97;1.53;;;14.30;99.90;;;;;;5087075;28;20287;-53
2022/09/19 08:38:26;;;;;;;4.23;1.80;;;14.30;99.90;;;;;;5086886;28;20232;-52
2022/09/19 08:41:21;;;;;;;4.57;2.00;;;14.40;99.90;;;;;;5086812;28;20312;-53
2022/09/19 08:43:57;;;;;;;2.43;1.50;;;14.40;99.90;;;;;;5085278;28;20234;-52
2022/09/19 08:46:35;;;;;;;4.90;1.70;;;14.50;99.90;;;;;;5088948;28;20203;-54
2022/09/19 08:49:10;;;;;;;4.97;1.37;;;14.60;99.90;;;;;;5094146;28;20231;-53
2022/09/19 08:51:51;;;;;;;4.47;1.50;;;14.50;99.90;;;;;;5097205;28;20314;-52
2022/09/19 08:54:23;;;;;;;4.00;1.20;;;14.30;99.90;;;;;;5098155;28;20243;-53
2022/09/19 08:56:52;;;;;;;4.60;1.20;;;14.20;99.90;;;;;;5097243;28;20681;-52
2022/09/19 08:59:25;;;;;;;3.10;1.50;;;14.10;99.90;;;;;;5097108;28;20224;-53
2022/09/19 09:02:00;;;;;;;2.70;1.43;;;14.10;99.90;;;;;;5096049;28;20224;-53
2022/09/19 09:04:48;;;;;;;3.97;1.80;;;14.30;99.90;;;;;;5097246;28;20211;-53
2022/09/19 09:07:27;;;;;;;4.57;1.93;;;14.50;99.90;;;;;;5102609;28;20261;-53
2022/09/19 09:10:19;;;;;;;4.60;1.57;;;14.70;99.90;;;;;;5096826;28;20791;-53
2022/09/19 09:12:58;;;;;;;2.90;1.77;;;14.70;99.90;;;;;;5095685;28;20218;-53
2022/09/19 09:15:37;;;;;;;4.07;1.83;;;14.70;99.90;;;;;;5100190;28;20207;-52
2022/09/19 09:18:31;;;;;;;2.13;1.53;;;14.60;99.90;;;;;;5084064;28;20235;-53
2022/09/19 09:21:08;;;;;;;5.40;2.00;;;14.40;99.90;;;;;;5094259;28;20605;-50
2022/09/19 09:23:37;;;;;;;7.77;2.13;;;14.20;99.90;;;;;;5095308;28;20260;-49
2022/09/19 09:26:11;;;;;;;4.73;1.83;;;14.10;99.90;;;;;;5097419;28;20204;-50
2022/09/19 09:28:43;;;;;;;3.23;1.80;;;14.00;99.90;;;;;;5095528;28;20231;-50
2022/09/19 09:31:19;;;;;;;5.27;1.80;;;14.00;99.90;;;;;;5098009;28;20208;-52
2022/09/19 09:33:53;;;;;;;3.53;2.00;;;14.10;99.90;;;;;;5096291;28;20204;-52
2022/09/19 09:36:26;;;;;;;2.30;1.37;;;14.20;99.90;;;;;;5092345;28;20298;-50
2022/09/19 09:38:58;;;;;;;2.77;1.80;;;14.20;99.90;;;;;;5095306;28;20317;-50
2022/09/19 09:41:47;;;;;;;2.47;1.40;;;14.10;99.90;;;;;;5095549;28;20203;-50
2022/09/19 09:44:32;;;;;;;3.03;1.67;;;14.00;99.90;;;;;;5099590;28;20232;-53
2022/09/19 09:47:10;;;;;;;2.73;1.50;;;14.00;99.90;;;;;;5091400;28;20236;-53
2022/09/19 09:49:39;;;;;;;1.57;1.17;;;14.10;99.90;;;;;;5094444;28;20256;-53
2022/09/19 09:52:23;;;;;;;1.97;1.37;;;14.40;99.90;;;;;;5092644;28;20311;-53
2022/09/19 09:57:58;;;;;;;2.37;1.50;;;15.00;99.90;;;;;;5096298;28;20598;-52
2022/09/19 10:03:35;;;;;;;5.40;1.60;;;15.40;99.90;;;;;;5093415;28;20268;-53
2022/09/19 10:06:10;;;;;;;3.63;1.40;;;15.50;99.90;;;;;;5090680;28;20295;-53
2022/09/19 10:08:45;;;;;;;3.77;1.50;;;15.40;99.90;;;;;;5093110;28;20261;-53
2022/09/19 10:11:17;;;;;;;1.97;1.30;;;15.50;99.90;;;;;;5092456;28;20235;-53
2022/09/19 10:14:08;;;;;;;3.43;1.97;;;15.30;99.90;;;;;;5089948;28;20204;-53
2022/09/19 10:16:37;;;;;;;2.97;1.50;;;15.00;99.90;;;;;;5094717;28;20208;-52
2022/09/19 10:19:15;;;;;;;2.50;1.20;;;15.10;99.90;;;;;;5090016;28;20238;-54
2022/09/19 10:21:43;;;;;;;3.37;1.30;;;15.10;99.90;;;;;;5089813;28;20653;-54
2022/09/19 10:24:47;;;;;;;3.50;1.40;;;15.20;99.90;;;;;;5089258;28;20209;-53
2022/09/19 10:27:19;;;;;;;2.53;1.30;;;15.30;99.90;;;;;;5088401;28;20235;-52
2022/09/19 10:29:56;;;;;;;3.20;1.47;;;15.20;99.90;;;;;;5086574;28;20228;-53
2022/09/19 10:32:25;;;;;;;2.00;1.50;;;15.20;99.90;;;;;;5079227;28;20231;-53
2022/09/19 10:34:55;;;;;;;2.73;1.50;;;15.40;99.90;;;;;;5089005;28;20296;-52
2022/09/19 10:37:27;;;;;;;3.17;1.60;;;15.40;99.90;;;;;;5104503;28;20314;-53
2022/09/19 10:40:01;;;;;;;2.83;1.20;;;15.40;99.90;;;;;;5102210;28;20319;-53
2022/09/19 10:42:36;;;;;;;5.83;1.63;;;15.30;99.90;;;;;;5079031;28;20236;-53
2022/09/19 10:45:18;;;;;;;2.30;1.73;;;15.20;99.90;;;;;;5088516;28;20729;-52
2022/09/19 10:47:48;;;;;;;3.07;1.30;;;15.10;99.90;;;;;;5088292;28;20210;-53
2022/09/19 10:50:19;;;;;;;3.30;1.60;;;15.00;99.90;;;;;;5091176;28;20728;-53
2022/09/19 10:52:50;;;;;;;2.40;1.43;;;15.00;99.90;;;;;;5088388;28;20306;-53
2022/09/19 10:55:22;;;;;;;2.83;1.57;;;14.90;99.90;;;;;;5088882;28;20701;-53
2022/09/19 10:57:58;;;;;;;1.97;1.07;;;14.90;99.90;;;;;;5088883;28;20771;-53
2022/09/19 11:00:28;;;;;;;2.93;1.40;;;15.00;99.90;;;;;;5087866;28;20200;-53
2022/09/19 11:02:59;;;;;;;3.33;1.20;;;15.20;99.90;;;;;;5089553;28;20277;-53
2022/09/19 11:05:30;;;;;;;4.00;0.83;;;15.10;99.90;;;;;;5089372;28;20242;-53
2022/09/19 11:07:59;;;;;;;1.90;1.00;;;15.10;99.90;;;;;;5089735;28;20236;-53
2022/09/19 11:10:37;;;;;;;3.20;1.20;;;14.90;99.90;;;;;;5088218;28;20239;-52
2022/09/19 11:13:12;;;;;;;2.40;1.40;;;14.70;99.90;;;;;;5088553;28;20295;-54
2022/09/19 11:16:03;;;;;;;2.73;1.37;;;14.80;99.90;;;;;;5086687;28;20310;-53
2022/09/19 11:18:56;;;;;;;5.03;1.53;;;14.90;99.90;;;;;;5081504;28;20315;-53
2022/09/19 11:21:41;;;;;;;3.03;1.63;;;15.00;99.90;;;;;;5085639;28;20701;-53
2022/09/19 11:24:37;;;;;;;4.60;2.10;;;15.10;99.90;;;;;;5087509;28;20210;-53
2022/09/19 11:27:24;;;;;;;5.90;2.00;;;15.10;99.90;;;;;;5087795;28;20208;-54
2022/09/19 11:30:05;;;;;;;4.87;1.80;;;15.30;99.90;;;;;;5088642;28;20224;-53
2022/09/19 11:33:04;;;;;;;5.43;2.07;;;15.30;99.90;;;;;;5086890;28;20246;-53
2022/09/19 11:35:42;;;;;;;8.40;2.27;;;15.40;99.90;;;;;;5087202;28;20232;-53
2022/09/19 11:38:33;;;;;;;7.90;2.67;;;15.40;99.90;;;;;;5088282;28;20208;-53
2022/09/19 11:41:31;;;;;;;6.13;2.13;;;15.70;99.90;;;;;;5085838;28;20226;-53
2022/09/19 11:44:17;;;;;;;6.17;2.40;;;15.80;99.90;;;;;;5088107;28;20196;-53
2022/09/19 11:46:55;;;;;;;5.75;2.15;;;15.90;99.90;;;;;;5086310;28;20648;-54
2022/09/19 11:49:52;;;;;;;7.70;2.08;;;15.90;99.90;;;;;;5085177;28;20231;-53
2022/09/19 11:52:26;;;;;;;8.90;2.50;;;15.80;99.90;;;;;;5085899;28;20218;-54
2022/09/19 11:55:15;;;;;;;8.80;2.30;;;15.50;99.90;;;;;;5083861;28;20207;-53
2022/09/19 11:57:50;;;;;;;7.63;2.17;;;15.50;99.90;;;;;;5087376;28;20980;-53
2022/09/19 12:00:20;;;;;;;9.57;2.67;;;15.50;99.90;;;;;;5087868;28;20775;-53
2022/09/19 12:03:16;;;;;;;8.32;2.72;;;15.70;99.90;;;;;;5087576;28;20299;-53
2022/09/19 12:05:56;;;;;;;9.30;2.63;;;15.70;99.90;;;;;;5087399;28;20748;-53
2022/09/19 12:08:34;;;;;;;8.00;2.50;;;15.70;99.90;;;;;;5087660;28;20224;-53
2022/09/19 12:11:09;;;;;;;6.40;2.25;;;15.50;99.90;;;;;;5081628;28;20232;-53
2022/09/19 12:13:43;;;;;;;7.07;2.67;;;15.60;99.90;;;;;;5086917;28;20208;-53
2022/09/19 12:16:20;;;;;;;7.95;2.70;;;15.60;99.90;;;;;;5087310;28;20300;-53
2022/09/19 12:18:57;;;;;;;8.90;2.40;;;15.90;99.90;;;;;;5086790;28;20228;-53
2022/09/19 12:21:34;;;;;;;9.77;2.60;;;16.00;99.90;;;;;;5085302;28;20298;-53
2022/09/19 12:26:58;;;;;;;5.93;2.20;;;16.30;99.90;;;;;;5087034;28;20239;-53
2022/09/19 12:29:32;;;;;;;7.85;2.60;;;16.20;99.90;;;;;;5087758;28;20228;-53
2022/09/19 12:32:07;;;;;;;5.03;2.13;;;16.30;99.90;;;;;;5087913;28;20236;-53
2022/09/19 12:34:44;;;;;;;9.27;2.95;;;16.50;99.90;;;;;;5087196;28;20208;-53
2022/09/19 12:37:20;;;;;;;6.32;2.00;;;16.50;99.90;;;;;;5086798;28;20200;-53
2022/09/19 12:39:58;;;;;;;6.80;2.08;;;16.40;99.90;;;;;;5087200;28;20228;-52
2022/09/19 12:42:32;;;;;;;4.55;2.20;;;16.40;99.90;;;;;;5080451;28;20298;-53
2022/09/19 12:45:07;;;;;;;4.57;2.03;;;16.40;99.90;;;;;;5087844;28;20196;-53
2022/09/19 12:47:54;;;;;;;5.47;1.95;;;16.60;99.90;;;;;;5086515;28;20291;-52
2022/09/19 12:50:33;;;;;;;4.57;1.90;;;16.60;99.90;;;;;;5090881;28;20228;-53
2022/09/19 12:53:20;;;;;;;4.65;2.10;;;16.40;99.90;;;;;;5082024;28;20286;-54
2022/09/19 12:56:01;;;;;;;4.38;1.38;;;16.30;99.90;;;;;;5085367;28;20200;-54
2022/09/19 12:58:37;;;;;;;5.25;1.67;;;16.30;99.90;;;;;;5093064;28;20223;-54
2022/09/19 13:01:20;;;;;;;4.15;1.30;;;16.40;99.90;;;;;;5087314;28;20199;-53
2022/09/19 13:03:53;;;;;;;3.83;1.60;;;16.70;99.90;;;;;;5078215;28;20207;-53
2022/09/19 13:06:25;;;;;;;4.68;1.52;;;16.70;99.90;;;;;;5083980;28;20319;-53
2022/09/19 13:08:57;;;;;;;4.80;1.67;;;16.80;99.90;;;;;;5071353;28;20236;-53
2022/09/19 13:11:34;;;;;;;6.97;1.63;;;16.90;99.90;;;;;;5084839;28;20228;-53
2022/09/19 13:14:10;;;;;;;6.15;1.73;;;16.70;99.90;;;;;;5070753;28;20230;-53
2022/09/19 13:23:30;;;;;;;5.80;1.70;;;16.60;99.90;;;;;;5085349;28;20213;-53
2022/09/19 13:25:05;;;;;;;4.32;1.80;;;16.70;99.90;;;;;;5087878;28;20215;-54
2022/09/19 13:27:33;;;;;;;4.82;2.13;;;16.80;99.90;;;;;;5087843;28;20291;-53
2022/09/19 13:30:03;;;;;;;7.38;2.00;;;16.90;99.90;;;;;;5088476;28;20256;-53
2022/09/19 13:32:52;;;;;;;4.78;2.15;;;17.10;99.90;;;;;;5086656;28;20228;-53
2022/09/19 13:35:22;;;;;;;5.57;1.88;;;17.20;99.90;;;;;;5085937;28;20315;-53